createdAt,value
2023-03-07T00:00:12.800Z,67.94
2023-03-07T00:02:14.901Z,67.89
2023-03-07T00:04:17.102Z,68.43
2023-03-07T00:06:19.241Z,68.48
2023-03-07T00:08:21.299Z,68.55
2023-03-07T00:10:23.371Z,68.34
2023-03-07T00:12:25.688Z,68.80
2023-03-07T00:14:27.836Z,68.24
2023-03-07T00:16:29.973Z,68.24
2023-03-07T00:18:32.879Z,68.40
2023-03-07T00:20:34.928Z,68.28
2023-03-07T00:22:37.811Z,68.47
2023-03-07T00:24:40.009Z,68.41
2023-03-07T00:26:42.148Z,68.75
2023-03-07T00:28:47.426Z,68.41
2023-03-07T00:30:49.498Z,68.61
2023-03-07T00:32:51.453Z,69.07
2023-03-07T00:34:54.776Z,68.98
2023-03-07T00:36:56.892Z,69.40
2023-03-07T00:38:59.081Z,68.48
2023-03-07T00:41:05.317Z,68.53
2023-03-07T00:43:07.301Z,68.85
2023-03-07T00:45:11.064Z,68.57
2023-03-07T00:47:13.183Z,68.06
2023-03-07T00:49:15.349Z,68.60
2023-03-07T00:51:19.129Z,68.69
2023-03-07T00:53:21.842Z,68.94
2023-03-07T00:55:23.854Z,69.26
2023-03-07T00:57:25.921Z,69.13
2023-03-07T00:59:29.448Z,68.92
2023-03-07T01:01:31.622Z,68.69
2023-03-07T01:03:34.645Z,69.04
2023-03-07T01:05:40.205Z,68.78
2023-03-07T01:07:42.406Z,68.94
2023-03-07T01:09:44.454Z,68.74
2023-03-07T01:11:46.524Z,69.26
2023-03-07T01:13:48.715Z,69.30
2023-03-07T01:15:50.803Z,68.78
2023-03-07T01:17:52.811Z,68.71
2023-03-07T01:19:54.870Z,68.96
2023-03-07T01:21:57.028Z,68.68
2023-03-07T01:23:59.277Z,68.93
2023-03-07T01:26:01.380Z,69.19
2023-03-07T01:28:04.255Z,69.70
2023-03-07T01:30:07.616Z,69.96
2023-03-07T01:32:09.824Z,70.26
2023-03-07T01:34:12.144Z,68.83
2023-03-07T01:36:19.514Z,68.68
2023-03-07T01:38:21.660Z,68.42
2023-03-07T01:40:25.195Z,68.18
2023-03-07T01:42:30.940Z,68.36
2023-03-07T01:44:55.860Z,68.36
2023-03-07T01:47:00.773Z,68.95
2023-03-07T01:49:09.817Z,69.27
2023-03-07T01:51:12.130Z,69.21
2023-03-07T01:53:15.984Z,68.79
2023-03-07T01:55:23.070Z,69.16
2023-03-07T01:57:31.632Z,69.04
2023-03-07T01:59:37.316Z,69.32
2023-03-07T02:01:39.863Z,69.70
2023-03-07T02:03:45.337Z,69.92
2023-03-07T02:05:53.564Z,69.84
2023-03-07T02:07:58.989Z,69.67
2023-03-07T02:10:02.214Z,68.79
2023-03-07T02:12:04.937Z,68.42
2023-03-07T02:14:07.148Z,67.90
2023-03-07T02:16:09.694Z,67.53
2023-03-07T02:18:16.150Z,67.37
2023-03-07T02:20:24.453Z,66.77
2023-03-07T02:22:27.593Z,67.35
2023-03-07T02:24:37.343Z,67.63
2023-03-07T02:26:44.459Z,68.24
2023-03-07T02:28:48.250Z,68.39
2023-03-07T02:30:55.798Z,68.87
2023-03-07T02:32:57.953Z,68.61
2023-03-07T02:35:00.009Z,68.25
2023-03-07T02:37:05.242Z,68.71
2023-03-07T02:39:07.297Z,68.52
2023-03-07T02:41:12.142Z,68.77
2023-03-07T02:43:14.646Z,68.55
2023-03-07T02:45:19.482Z,68.16
2023-03-07T02:47:21.536Z,69.16
2023-03-07T02:49:23.874Z,69.38
2023-03-07T02:51:25.902Z,69.39
2023-03-07T02:53:28.549Z,69.25
2023-03-07T02:55:31.075Z,69.15
2023-03-07T02:57:33.318Z,69.56
2023-03-07T02:59:35.326Z,69.67
2023-03-07T03:01:37.600Z,69.44
2023-03-07T03:03:39.822Z,69.36
2023-03-07T03:05:41.884Z,69.62
2023-03-07T03:07:43.938Z,69.56
2023-03-07T03:09:46.093Z,69.31
2023-03-07T03:11:48.253Z,69.18
2023-03-07T03:13:50.350Z,69.03
2023-03-07T03:15:56.938Z,69.52
2023-03-07T03:17:59.101Z,69.88
2023-03-07T03:20:01.218Z,70.11
2023-03-07T03:22:03.873Z,70.05
2023-03-07T03:24:08.189Z,69.19
2023-03-07T03:26:11.800Z,69.15
2023-03-07T03:28:13.807Z,68.63
2023-03-07T03:30:16.231Z,69.08
2023-03-07T03:32:18.241Z,68.77
2023-03-07T03:34:20.487Z,69.01
2023-03-07T03:36:26.520Z,68.69
2023-03-07T03:38:28.542Z,68.40
2023-03-07T03:40:31.562Z,68.77
2023-03-07T03:42:33.632Z,69.05
2023-03-07T03:44:35.778Z,68.93
2023-03-07T03:46:38.277Z,68.03
2023-03-07T03:48:41.014Z,69.11
2023-03-07T03:50:43.119Z,69.03
2023-03-07T03:52:45.473Z,69.30
2023-03-07T03:54:47.425Z,69.79
2023-03-07T03:56:49.473Z,69.96
2023-03-07T03:58:53.987Z,69.73
2023-03-07T04:00:56.447Z,69.44
2023-03-07T04:02:58.649Z,69.95
2023-03-07T04:05:00.838Z,70.06
2023-03-07T04:07:04.894Z,70.54
2023-03-07T04:09:07.115Z,69.82
2023-03-07T04:11:09.373Z,69.36
2023-03-07T04:13:11.467Z,69.50
2023-03-07T04:15:13.625Z,69.70
2023-03-07T04:17:15.657Z,69.83
2023-03-07T04:19:18.476Z,69.57
2023-03-07T04:21:21.756Z,69.93
2023-03-07T04:23:25.141Z,69.05
2023-03-07T04:25:27.264Z,69.21
2023-03-07T04:27:29.633Z,69.41
2023-03-07T04:29:31.833Z,70.14
2023-03-07T04:31:33.990Z,70.23
2023-03-07T04:33:36.089Z,70.11
2023-03-07T04:35:38.294Z,69.79
2023-03-07T04:37:40.389Z,69.80
2023-03-07T04:39:42.458Z,70.28
2023-03-07T04:41:44.937Z,69.72
2023-03-07T04:43:47.057Z,69.29
2023-03-07T04:45:49.124Z,69.20
2023-03-07T04:47:51.160Z,69.56
2023-03-07T04:49:53.849Z,69.97
2023-03-07T04:51:56.013Z,69.92
2023-03-07T04:53:58.073Z,70.22
2023-03-07T04:56:01.685Z,70.37
2023-03-07T04:58:04.201Z,69.96
2023-03-07T05:00:09.559Z,69.80
2023-03-07T05:02:13.797Z,69.54
2023-03-07T05:04:15.929Z,69.41
2023-03-07T05:06:18.025Z,69.89
2023-03-07T05:08:20.999Z,69.39
2023-03-07T05:10:22.983Z,69.66
2023-03-07T05:12:25.735Z,69.67
2023-03-07T05:14:27.790Z,69.94
2023-03-07T05:16:30.239Z,70.01
2023-03-07T05:18:32.348Z,69.48
2023-03-07T05:20:34.862Z,69.42
2023-03-07T05:22:37.243Z,70.27
2023-03-07T05:24:39.431Z,70.29
2023-03-07T05:26:41.756Z,69.92
2023-03-07T05:28:43.770Z,69.73
2023-03-07T05:30:47.308Z,69.56
2023-03-07T05:32:49.860Z,69.50
2023-03-07T05:34:52.064Z,69.68
2023-03-07T05:36:54.141Z,69.76
2023-03-07T05:38:57.258Z,69.11
2023-03-07T05:40:59.419Z,69.13
2023-03-07T05:43:01.527Z,69.18
2023-03-07T05:45:04.456Z,69.56
2023-03-07T05:47:06.666Z,69.06
2023-03-07T05:49:09.455Z,69.06
2023-03-07T05:51:11.534Z,69.30
2023-03-07T05:53:13.575Z,68.71
2023-03-07T05:55:16.010Z,68.89
2023-03-07T05:57:18.017Z,68.46
2023-03-07T05:59:20.103Z,69.22
2023-03-07T06:01:22.229Z,69.68
2023-03-07T06:03:24.246Z,69.30
2023-03-07T06:05:26.221Z,69.45
2023-03-07T06:07:28.307Z,69.82
2023-03-07T06:09:30.312Z,69.12
2023-03-07T06:11:33.589Z,69.03
2023-03-07T06:13:35.641Z,68.88
2023-03-07T06:15:37.613Z,69.33
2023-03-07T06:17:40.762Z,69.10
2023-03-07T06:19:42.877Z,68.30
2023-03-07T06:21:45.027Z,68.66
2023-03-07T06:23:47.181Z,68.51
2023-03-07T06:25:49.417Z,67.96
2023-03-07T06:27:51.709Z,68.30
2023-03-07T06:29:54.022Z,67.85
2023-03-07T06:31:56.314Z,68.19
2023-03-07T06:33:58.473Z,68.60
2023-03-07T06:36:00.713Z,69.27
2023-03-07T06:38:03.127Z,69.72
2023-03-07T06:40:06.660Z,68.55
2023-03-07T06:42:09.334Z,69.43
2023-03-07T06:44:11.425Z,69.62
2023-03-07T06:46:13.604Z,69.25
2023-03-07T06:48:15.790Z,68.57
2023-03-07T06:50:26.436Z,68.81
2023-03-07T06:52:32.368Z,69.17
2023-03-07T06:54:34.433Z,68.92
2023-03-07T06:56:36.726Z,68.57
2023-03-07T06:58:39.040Z,68.67
2023-03-07T07:00:41.178Z,69.19
2023-03-07T07:02:43.478Z,69.20
2023-03-07T07:04:45.759Z,68.63
2023-03-07T07:06:48.125Z,69.28
2023-03-07T07:08:50.265Z,68.44
2023-03-07T07:10:53.039Z,69.02
2023-03-07T07:12:56.861Z,68.56
2023-03-07T07:15:02.410Z,68.79
2023-03-07T07:17:04.623Z,69.08
2023-03-07T07:19:06.966Z,68.85
2023-03-07T07:21:09.229Z,68.93
2023-03-07T07:23:11.472Z,68.93
2023-03-07T07:25:13.807Z,68.41
2023-03-07T07:27:20.090Z,69.00
2023-03-07T07:29:23.094Z,68.12
2023-03-07T07:31:25.244Z,67.49
2023-03-07T07:33:27.916Z,67.92
2023-03-07T07:35:29.946Z,67.67
2023-03-07T07:37:32.119Z,67.46
2023-03-07T07:39:56.196Z,66.84
2023-03-07T07:41:58.150Z,67.49
2023-03-07T07:44:00.771Z,67.88
2023-03-07T07:46:05.451Z,67.78
2023-03-07T07:48:10.052Z,67.79
2023-03-07T07:50:14.343Z,67.83
2023-03-07T07:52:18.479Z,67.32
2023-03-07T07:54:20.610Z,66.75
2023-03-07T07:56:23.959Z,67.33
2023-03-07T07:58:26.608Z,66.95
2023-03-07T08:00:29.481Z,66.78
2023-03-07T08:02:31.836Z,67.28
2023-03-07T08:04:35.881Z,67.18
2023-03-07T08:06:38.267Z,67.66
2023-03-07T08:08:40.920Z,67.61
2023-03-07T08:10:44.583Z,67.71
2023-03-07T08:12:53.481Z,67.60
2023-03-07T08:14:55.935Z,68.07
2023-03-07T08:16:58.281Z,67.78
2023-03-07T08:19:01.408Z,67.43
2023-03-07T08:21:03.722Z,68.39
2023-03-07T08:23:06.120Z,68.30
2023-03-07T08:25:16.188Z,68.65
2023-03-07T08:27:18.655Z,68.03
2023-03-07T08:29:21.237Z,67.61
2023-03-07T08:31:25.457Z,67.76
2023-03-07T08:33:27.798Z,68.25
2023-03-07T08:35:31.666Z,67.94
2023-03-07T08:37:36.607Z,68.38
2023-03-07T08:39:39.164Z,67.53
2023-03-07T08:41:41.966Z,66.81
2023-03-07T08:43:44.335Z,66.88
2023-03-07T08:45:46.812Z,66.29
2023-03-07T08:47:49.453Z,65.59
2023-03-07T08:49:51.848Z,65.60
2023-03-07T08:51:54.499Z,66.45
2023-03-07T08:53:59.663Z,65.61
2023-03-07T08:56:06.609Z,65.15
2023-03-07T08:58:09.402Z,64.31
2023-03-07T09:00:13.014Z,64.61
2023-03-07T09:02:18.760Z,63.71
2023-03-07T09:04:21.701Z,63.95
2023-03-07T09:06:24.524Z,63.25
2023-03-07T09:08:27.474Z,63.46
2023-03-07T09:10:30.620Z,63.47
2023-03-07T09:12:36.718Z,63.99
2023-03-07T09:14:39.492Z,63.67
2023-03-07T09:16:41.916Z,64.29
2023-03-07T09:18:44.683Z,64.35
2023-03-07T09:20:47.072Z,63.78
2023-03-07T09:22:52.378Z,63.36
2023-03-07T09:24:57.199Z,63.26
2023-03-07T09:27:00.035Z,63.29
2023-03-07T09:29:02.307Z,62.88
2023-03-07T09:31:09.135Z,63.54
2023-03-07T09:33:12.039Z,64.01
2023-03-07T09:35:14.763Z,62.85
2023-03-07T09:37:20.294Z,63.37
2023-03-07T09:39:22.678Z,63.56
2023-03-07T09:41:34.289Z,63.78
2023-03-07T09:43:45.248Z,63.85
2023-03-07T09:45:56.664Z,63.13
2023-03-07T09:47:59.801Z,63.45
2023-03-07T09:50:04.325Z,63.47
2023-03-07T09:52:16.009Z,63.18
2023-03-07T09:54:27.942Z,63.44
2023-03-07T09:56:38.600Z,63.29
2023-03-07T09:58:45.496Z,62.87
2023-03-07T10:00:54.365Z,63.34
2023-03-07T10:03:00.620Z,62.62
2023-03-07T10:05:09.218Z,62.73
2023-03-07T10:07:15.886Z,62.60
2023-03-07T10:09:22.674Z,62.25
2023-03-07T10:11:46.787Z,62.56
2023-03-07T10:13:59.084Z,62.96
2023-03-07T10:16:10.561Z,62.95
2023-03-07T10:18:16.626Z,63.11
2023-03-07T10:20:25.202Z,62.66
2023-03-07T10:22:36.040Z,62.66
2023-03-07T10:24:43.642Z,62.75
2023-03-07T10:26:58.167Z,62.09
2023-03-07T10:29:09.497Z,61.39
2023-03-07T10:31:21.354Z,61.71
2023-03-07T10:33:25.232Z,61.36
2023-03-07T10:35:34.279Z,61.28
2023-03-07T10:37:44.305Z,61.32
2023-03-07T10:39:52.464Z,61.71
2023-03-07T10:41:55.789Z,62.36
2023-03-07T10:43:58.918Z,62.04
2023-03-07T10:46:22.359Z,62.21
2023-03-07T10:48:28.811Z,61.61
2023-03-07T10:50:36.525Z,61.55
2023-03-07T10:52:43.368Z,61.34
2023-03-07T10:54:45.785Z,61.39
2023-03-07T10:57:03.004Z,61.06
2023-03-07T10:59:10.040Z,60.82
2023-03-07T11:01:16.817Z,60.74
2023-03-07T11:03:25.955Z,59.99
2023-03-07T11:05:32.994Z,60.01
2023-03-07T11:07:36.840Z,60.16
2023-03-07T11:09:47.913Z,59.85
2023-03-07T11:11:51.156Z,60.08
2023-03-07T11:13:59.718Z,60.10
2023-03-07T11:16:12.025Z,59.65
2023-03-07T11:18:20.748Z,58.59
2023-03-07T11:20:25.850Z,58.27
2023-03-07T11:22:34.429Z,57.54
2023-03-07T11:24:40.266Z,57.95
2023-03-07T11:26:42.524Z,58.50
2023-03-07T11:28:45.000Z,58.56
2023-03-07T11:30:54.126Z,59.61
2023-03-07T11:33:03.844Z,59.48
2023-03-07T11:35:15.784Z,59.79
2023-03-07T11:37:23.714Z,60.17
2023-03-07T11:39:38.954Z,59.34
2023-03-07T11:41:46.178Z,58.80
2023-03-07T11:43:54.675Z,58.64
2023-03-07T11:46:08.098Z,59.47
2023-03-07T11:48:21.237Z,60.04
2023-03-07T11:50:30.284Z,59.50
2023-03-07T11:52:34.277Z,56.87
2023-03-07T11:54:46.661Z,57.55
2023-03-07T11:56:54.574Z,57.75
2023-03-07T11:59:08.105Z,57.03
2023-03-07T12:01:12.942Z,56.42
2023-03-07T12:03:25.409Z,55.15
2023-03-07T12:05:31.568Z,55.87
2023-03-07T12:07:37.256Z,55.98
2023-03-07T12:09:45.778Z,55.41
2023-03-07T12:11:54.857Z,55.01
2023-03-07T12:14:03.787Z,55.55
2023-03-07T12:16:11.702Z,56.05
2023-03-07T12:18:17.560Z,56.04
2023-03-07T12:20:28.541Z,55.89
2023-03-07T12:22:37.230Z,55.05
2023-03-07T12:24:46.039Z,55.54
2023-03-07T12:26:57.238Z,55.52
2023-03-07T12:29:04.265Z,54.98
2023-03-07T12:31:11.404Z,55.14
2023-03-07T12:33:27.058Z,54.57
2023-03-07T12:35:42.601Z,54.02
2023-03-07T12:37:52.932Z,53.75
2023-03-07T12:40:02.735Z,54.52
2023-03-07T12:42:15.403Z,53.38
2023-03-07T12:44:33.644Z,53.49
2023-03-07T12:46:43.803Z,52.64
2023-03-07T12:48:54.099Z,52.17
2023-03-07T12:51:05.100Z,52.44
2023-03-07T12:53:13.941Z,51.93
2023-03-07T12:55:25.206Z,51.67
2023-03-07T12:57:34.521Z,50.69
2023-03-07T12:59:43.248Z,51.24
2023-03-07T13:02:01.817Z,50.61
2023-03-07T13:04:15.081Z,50.14
2023-03-07T13:06:23.333Z,49.85
2023-03-07T13:08:28.859Z,49.76
2023-03-07T13:10:32.291Z,50.30
2023-03-07T13:12:37.358Z,50.52
2023-03-07T13:14:45.640Z,50.09
2023-03-07T13:16:48.451Z,49.14
2023-03-07T13:18:53.115Z,49.28
2023-03-07T13:21:07.409Z,49.86
2023-03-07T13:23:21.475Z,49.66
2023-03-07T13:25:27.076Z,50.14
2023-03-07T13:27:44.830Z,50.67
2023-03-07T13:29:53.879Z,51.63
2023-03-07T13:31:59.451Z,51.87
2023-03-07T13:34:24.838Z,53.19
2023-03-07T13:36:34.960Z,54.22
2023-03-07T13:38:40.923Z,54.76
2023-03-07T13:40:45.103Z,54.91
2023-03-07T13:42:52.520Z,55.46
2023-03-07T13:44:57.179Z,56.16
2023-03-07T13:47:01.715Z,57.11
2023-03-07T13:49:04.217Z,56.75
2023-03-07T13:51:09.405Z,57.52
2023-03-07T13:53:17.384Z,58.05
2023-03-07T13:55:26.022Z,57.83
2023-03-07T13:57:37.731Z,57.83
2023-03-07T13:59:49.861Z,56.75
2023-03-07T14:01:58.585Z,55.18
2023-03-07T14:04:07.392Z,54.90
2023-03-07T14:06:17.700Z,54.60
2023-03-07T14:08:26.963Z,54.80
2023-03-07T14:10:31.770Z,55.64
2023-03-07T14:12:45.641Z,55.93
2023-03-07T14:14:57.623Z,55.69
2023-03-07T14:17:06.449Z,55.92
2023-03-07T14:19:13.662Z,55.86
2023-03-07T14:21:20.527Z,56.21
2023-03-07T14:23:31.716Z,56.54
2023-03-07T14:25:38.722Z,56.84
2023-03-07T14:27:47.302Z,57.40
2023-03-07T14:29:54.786Z,57.99
2023-03-07T14:31:59.643Z,58.61
2023-03-07T14:34:04.366Z,58.51
2023-03-07T14:36:13.117Z,58.30
2023-03-07T14:38:21.717Z,58.50
2023-03-07T14:40:30.840Z,58.81
2023-03-07T14:42:36.521Z,58.29
2023-03-07T14:44:47.404Z,57.82
2023-03-07T14:46:52.759Z,56.46
2023-03-07T14:49:01.548Z,56.08
2023-03-07T14:51:16.674Z,56.37
2023-03-07T14:53:26.278Z,56.55
2023-03-07T14:55:36.577Z,55.71
2023-03-07T14:57:46.291Z,55.69
2023-03-07T14:59:54.658Z,55.61
2023-03-07T15:01:58.899Z,55.24
2023-03-07T15:04:02.879Z,54.63
2023-03-07T15:06:14.285Z,55.20
2023-03-07T15:08:21.641Z,55.57
2023-03-07T15:10:30.513Z,56.06
2023-03-07T15:12:33.671Z,55.72
2023-03-07T15:14:46.985Z,55.77
2023-03-07T15:16:57.313Z,56.40
2023-03-07T15:19:04.561Z,56.22
2023-03-07T15:21:12.729Z,55.76
2023-03-07T15:23:22.514Z,55.31
2023-03-07T15:25:26.201Z,54.98
2023-03-07T15:27:31.776Z,55.13
2023-03-07T15:29:34.584Z,55.15
2023-03-07T15:31:42.986Z,54.89
2023-03-07T15:33:45.189Z,54.87
2023-03-07T15:36:09.653Z,55.23
2023-03-07T15:38:19.152Z,55.92
2023-03-07T15:40:22.595Z,55.60
2023-03-07T15:42:24.890Z,55.87
2023-03-07T15:44:27.200Z,55.62
2023-03-07T15:46:31.910Z,54.82
2023-03-07T15:48:43.412Z,55.31
2023-03-07T15:50:54.137Z,55.73
2023-03-07T15:53:06.636Z,56.00
2023-03-07T15:55:19.083Z,56.02
2023-03-07T15:57:25.908Z,55.66
2023-03-07T15:59:34.096Z,56.16
2023-03-07T16:01:36.613Z,54.92
2023-03-07T16:03:49.669Z,55.51
2023-03-07T16:05:52.697Z,55.95
2023-03-07T16:07:57.260Z,56.18
2023-03-07T16:10:01.946Z,56.42
2023-03-07T16:12:05.881Z,56.94
2023-03-07T16:14:22.574Z,55.91
2023-03-07T16:16:28.933Z,55.18
2023-03-07T16:18:35.176Z,54.81
2023-03-07T16:20:37.409Z,55.10
2023-03-07T16:22:39.620Z,55.36
2023-03-07T16:24:42.758Z,56.18
2023-03-07T16:26:47.008Z,55.61
2023-03-07T16:28:52.763Z,56.18
2023-03-07T16:30:57.940Z,56.24
2023-03-07T16:33:00.443Z,55.49
2023-03-07T16:35:02.743Z,56.48
2023-03-07T16:37:07.476Z,56.05
2023-03-07T16:39:11.319Z,54.74
2023-03-07T16:41:17.982Z,54.94
2023-03-07T16:43:24.241Z,54.88
2023-03-07T16:45:28.994Z,55.15
2023-03-07T16:47:31.650Z,55.00
2023-03-07T16:49:33.960Z,54.70
2023-03-07T16:51:36.279Z,54.51
2023-03-07T16:53:38.829Z,54.11
2023-03-07T16:55:41.718Z,54.58
2023-03-07T16:57:48.779Z,54.61
2023-03-07T16:59:51.801Z,54.27
2023-03-07T17:01:55.128Z,54.55
2023-03-07T17:03:57.922Z,55.12
2023-03-07T17:06:00.751Z,54.47
2023-03-07T17:08:03.187Z,54.58
2023-03-07T17:10:08.565Z,54.16
2023-03-07T17:12:11.873Z,53.73
2023-03-07T17:14:16.577Z,53.69
2023-03-07T17:16:20.696Z,53.92
2023-03-07T17:18:23.762Z,54.10
2023-03-07T17:20:26.843Z,54.24
2023-03-07T17:22:31.967Z,54.60
2023-03-07T17:24:34.943Z,54.56
2023-03-07T17:26:43.422Z,54.66
2023-03-07T17:28:46.876Z,54.89
2023-03-07T17:30:50.422Z,54.58
2023-03-07T17:32:53.684Z,54.53
2023-03-07T17:34:55.962Z,55.07
2023-03-07T17:37:00.607Z,54.45
2023-03-07T17:39:03.079Z,53.89
2023-03-07T17:41:08.402Z,53.50
2023-03-07T17:43:18.957Z,54.04
2023-03-07T17:45:23.159Z,54.16
2023-03-07T17:47:27.812Z,53.94
2023-03-07T17:49:35.932Z,53.94
2023-03-07T17:51:39.835Z,53.52
2023-03-07T17:53:45.911Z,53.90
2023-03-07T17:55:50.308Z,54.41
2023-03-07T17:57:53.091Z,54.07
2023-03-07T17:59:56.681Z,54.18
2023-03-07T18:01:59.391Z,54.29
2023-03-07T18:04:06.638Z,54.15
2023-03-07T18:06:09.329Z,53.84
2023-03-07T18:08:14.598Z,54.96
2023-03-07T18:10:17.668Z,54.89
2023-03-07T18:12:26.512Z,54.97
2023-03-07T18:14:32.757Z,54.66
2023-03-07T18:16:38.036Z,54.91
2023-03-07T18:18:57.770Z,55.24
2023-03-07T18:21:07.025Z,55.31
2023-03-07T18:23:09.733Z,55.70
2023-03-07T18:25:15.913Z,55.53
2023-03-07T18:27:18.772Z,55.68
2023-03-07T18:29:23.333Z,56.15
2023-03-07T18:31:29.001Z,55.71
2023-03-07T18:33:32.774Z,56.48
2023-03-07T18:35:37.869Z,56.61
2023-03-07T18:37:40.379Z,55.80
2023-03-07T18:39:43.148Z,55.32
2023-03-07T18:41:45.597Z,55.71
2023-03-07T18:43:48.606Z,55.32
2023-03-07T18:45:51.338Z,55.09
2023-03-07T18:47:54.203Z,55.49
2023-03-07T18:49:58.034Z,56.14
2023-03-07T18:52:00.573Z,56.54
2023-03-07T18:54:04.107Z,56.42
2023-03-07T18:56:08.598Z,57.19
2023-03-07T18:58:11.236Z,57.20
2023-03-07T19:00:16.575Z,56.80
2023-03-07T19:02:19.260Z,57.48
2023-03-07T19:04:21.963Z,57.24
2023-03-07T19:06:26.268Z,57.49
2023-03-07T19:08:29.045Z,56.71
2023-03-07T19:10:35.151Z,56.56
2023-03-07T19:12:41.870Z,56.84
2023-03-07T19:14:44.751Z,56.88
2023-03-07T19:16:49.750Z,56.89
2023-03-07T19:18:54.298Z,56.99
2023-03-07T19:20:59.127Z,56.75
2023-03-07T19:23:02.397Z,57.01
2023-03-07T19:25:07.021Z,56.77
2023-03-07T19:27:10.386Z,57.08
2023-03-07T19:29:14.090Z,57.46
2023-03-07T19:31:19.845Z,57.58
2023-03-07T19:33:25.553Z,57.98
2023-03-07T19:35:29.622Z,58.29
2023-03-07T19:37:32.898Z,58.40
2023-03-07T19:39:37.820Z,58.39
2023-03-07T19:41:41.079Z,57.62
2023-03-07T19:43:43.429Z,58.57
2023-03-07T19:45:45.655Z,58.45
2023-03-07T19:47:50.943Z,58.17
2023-03-07T19:49:53.343Z,58.18
2023-03-07T19:51:56.352Z,57.98
2023-03-07T19:53:59.301Z,57.51
2023-03-07T19:56:09.498Z,57.26
2023-03-07T19:58:12.292Z,57.48
2023-03-07T20:00:15.792Z,57.89
2023-03-07T20:02:21.372Z,58.12
2023-03-07T20:04:28.585Z,58.23
2023-03-07T20:06:32.964Z,58.07
2023-03-07T20:08:36.630Z,57.73
2023-03-07T20:10:41.122Z,57.94
2023-03-07T20:12:45.050Z,58.23
2023-03-07T20:14:48.994Z,58.59
2023-03-07T20:16:53.043Z,59.08
2023-03-07T20:18:57.698Z,58.77
2023-03-07T20:21:06.234Z,59.49
2023-03-07T20:23:11.361Z,59.65
2023-03-07T20:25:15.598Z,59.42
2023-03-07T20:27:22.568Z,59.63
2023-03-07T20:29:25.534Z,59.06
2023-03-07T20:31:28.066Z,58.97
2023-03-07T20:33:30.560Z,59.16
2023-03-07T20:35:33.386Z,58.94
2023-03-07T20:37:36.264Z,58.74
2023-03-07T20:39:43.756Z,58.24
2023-03-07T20:41:45.851Z,58.53
2023-03-07T20:43:48.929Z,58.22
2023-03-07T20:45:50.911Z,57.79
2023-03-07T20:47:53.163Z,58.06
2023-03-07T20:49:55.285Z,57.69
2023-03-07T20:51:57.309Z,57.27
2023-03-07T20:54:02.813Z,57.05
2023-03-07T20:56:06.375Z,57.07
2023-03-07T20:58:08.475Z,57.06
2023-03-07T21:00:11.754Z,57.63
2023-03-07T21:02:13.758Z,57.79
2023-03-07T21:04:18.581Z,57.92
2023-03-07T21:06:23.410Z,57.79
2023-03-07T21:08:26.689Z,57.78
2023-03-07T21:10:29.042Z,57.96
2023-03-07T21:12:31.119Z,58.30
2023-03-07T21:14:33.067Z,58.12
2023-03-07T21:16:35.028Z,58.84
2023-03-07T21:18:38.606Z,58.00
2023-03-07T21:20:41.840Z,58.46
2023-03-07T21:22:47.326Z,58.93
2023-03-07T21:24:51.129Z,58.93
2023-03-07T21:26:54.257Z,59.43
2023-03-07T21:28:59.899Z,59.09
2023-03-07T21:31:05.887Z,58.43
2023-03-07T21:33:08.021Z,58.17
2023-03-07T21:35:12.654Z,57.91
2023-03-07T21:37:16.317Z,58.50
2023-03-07T21:39:18.881Z,58.77
2023-03-07T21:41:26.112Z,58.19
2023-03-07T21:43:29.197Z,58.65
2023-03-07T21:45:33.749Z,59.09
2023-03-07T21:47:38.386Z,58.71
2023-03-07T21:49:41.137Z,58.50
2023-03-07T21:51:44.390Z,58.14
2023-03-07T21:53:46.531Z,58.95
2023-03-07T21:55:54.967Z,58.56
2023-03-07T21:57:56.956Z,58.77
2023-03-07T22:00:00.214Z,58.12
2023-03-07T22:02:02.633Z,58.62
2023-03-07T22:04:04.498Z,58.53
2023-03-07T22:06:08.430Z,57.53
2023-03-07T22:08:10.718Z,57.94
2023-03-07T22:10:12.605Z,57.70
2023-03-07T22:12:14.566Z,58.20
2023-03-07T22:14:16.412Z,57.97
2023-03-07T22:16:21.632Z,57.71
2023-03-07T22:18:25.930Z,57.71
2023-03-07T22:20:27.983Z,57.94
2023-03-07T22:22:29.946Z,57.49
2023-03-07T22:24:32.420Z,57.58
2023-03-07T22:26:34.322Z,57.50
2023-03-07T22:28:36.817Z,57.59
2023-03-07T22:30:38.792Z,57.89
2023-03-07T22:32:43.713Z,57.45
2023-03-07T22:34:45.612Z,57.56
2023-03-07T22:36:51.323Z,57.69
2023-03-07T22:38:55.457Z,57.11
2023-03-07T22:41:01.567Z,57.38
2023-03-07T22:43:03.525Z,56.44
2023-03-07T22:45:06.259Z,56.88
2023-03-07T22:47:08.308Z,56.58
2023-03-07T22:49:11.248Z,56.19
2023-03-07T22:51:15.409Z,56.21
2023-03-07T22:53:17.577Z,56.67
2023-03-07T22:55:20.089Z,56.74
2023-03-07T22:57:25.928Z,55.89
2023-03-07T22:59:28.261Z,56.28
2023-03-07T23:01:30.516Z,56.12
2023-03-07T23:03:32.435Z,55.74
2023-03-07T23:05:36.428Z,55.94
2023-03-07T23:07:38.573Z,55.93
2023-03-07T23:09:40.697Z,55.99
2023-03-07T23:12:53.933Z,55.95
2023-03-07T23:14:59.274Z,55.86
2023-03-07T23:17:01.487Z,56.24
2023-03-07T23:19:03.867Z,55.25
2023-03-07T23:21:07.387Z,55.31
2023-03-07T23:23:09.553Z,55.96
2023-03-07T23:25:12.287Z,55.92
2023-03-07T23:27:14.142Z,55.31
2023-03-07T23:29:16.107Z,55.36
2023-03-07T23:31:21.878Z,55.92
2023-03-07T23:33:24.451Z,55.25
2023-03-07T23:35:29.942Z,54.73
2023-03-07T23:37:31.992Z,55.36
2023-03-07T23:39:33.868Z,54.70
2023-03-07T23:41:36.238Z,54.31
2023-03-07T23:43:38.499Z,55.33
2023-03-07T23:45:41.046Z,54.62
2023-03-07T23:47:43.110Z,55.58
2023-03-07T23:49:45.012Z,54.83
2023-03-07T23:51:47.003Z,55.28
2023-03-07T23:53:49.132Z,55.83
2023-03-07T23:55:51.058Z,55.89
2023-03-07T23:57:53.195Z,55.68
2023-03-07T23:59:55.108Z,55.92
